sensor_id;sensor_type;location;lat;lon;timestamp;P1;durP1;ratioP1;P2;durP2;ratioP2
61477;SDS011;47345;52.334;10.392;2023-09-19T00:00:56;1.90;;;1.20;;
61477;SDS011;47345;52.334;10.392;2023-09-19T00:03:25;1.10;;;1.00;;
61477;SDS011;47345;52.334;10.392;2023-09-19T00:05:54;2.30;;;1.00;;
61477;SDS011;47345;52.334;10.392;2023-09-19T00:08:24;2.90;;;0.90;;
61477;SDS011;47345;52.334;10.392;2023-09-19T00:10:54;2.00;;;0.90;;
61477;SDS011;47345;52.334;10.392;2023-09-19T00:13:22;2.50;;;1.00;;
61477;SDS011;47345;52.334;10.392;2023-09-19T00:15:51;4.80;;;1.00;;
61477;SDS011;47345;52.334;10.392;2023-09-19T00:18:21;1.80;;;1.00;;
61477;SDS011;47345;52.334;10.392;2023-09-19T00:20:57;1.20;;;1.00;;
61477;SDS011;47345;52.334;10.392;2023-09-19T00:23:25;1.60;;;1.00;;
61477;SDS011;47345;52.334;10.392;2023-09-19T00:25:53;2.40;;;1.20;;
61477;SDS011;47345;52.334;10.392;2023-09-19T00:28:24;1.40;;;1.30;;
61477;SDS011;47345;52.334;10.392;2023-09-19T00:30:53;3.10;;;1.10;;
61477;SDS011;47345;52.334;10.392;2023-09-19T00:33:21;2.80;;;1.30;;
61477;SDS011;47345;52.334;10.392;2023-09-19T00:35:50;0.90;;;0.90;;
61477;SDS011;47345;52.334;10.392;2023-09-19T00:38:19;1.30;;;1.20;;
61477;SDS011;47345;52.334;10.392;2023-09-19T00:40:49;1.00;;;1.00;;
61477;SDS011;47345;52.334;10.392;2023-09-19T00:43:18;1.20;;;0.90;;
61477;SDS011;47345;52.334;10.392;2023-09-19T00:45:46;0.80;;;0.80;;
61477;SDS011;47345;52.334;10.392;2023-09-19T00:48:17;4.10;;;1.10;;
61477;SDS011;47345;52.334;10.392;2023-09-19T00:50:47;1.20;;;1.20;;
61477;SDS011;47345;52.334;10.392;2023-09-19T00:53:17;1.90;;;1.40;;
61477;SDS011;47345;52.334;10.392;2023-09-19T00:55:47;1.70;;;1.30;;
61477;SDS011;47345;52.334;10.392;2023-09-19T00:58:17;1.30;;;1.20;;
61477;SDS011;47345;52.334;10.392;2023-09-19T01:00:45;1.50;;;1.40;;
61477;SDS011;47345;52.334;10.392;2023-09-19T01:03:14;2.60;;;1.40;;
61477;SDS011;47345;52.334;10.392;2023-09-19T01:05:42;1.40;;;1.30;;
61477;SDS011;47345;52.334;10.392;2023-09-19T01:08:10;1.70;;;1.20;;
61477;SDS011;47345;52.334;10.392;2023-09-19T01:10:39;2.80;;;1.20;;
61477;SDS011;47345;52.334;10.392;2023-09-19T01:13:20;1.50;;;1.30;;
61477;SDS011;47345;52.334;10.392;2023-09-19T01:15:58;2.00;;;1.40;;
61477;SDS011;47345;52.334;10.392;2023-09-19T01:18:33;1.60;;;1.50;;
61477;SDS011;47345;52.334;10.392;2023-09-19T01:21:15;1.40;;;1.30;;
61477;SDS011;47345;52.334;10.392;2023-09-19T01:23:57;3.90;;;1.50;;
61477;SDS011;47345;52.334;10.392;2023-09-19T01:26:43;3.70;;;1.50;;
61477;SDS011;47345;52.334;10.392;2023-09-19T01:29:26;1.30;;;1.20;;
61477;SDS011;47345;52.334;10.392;2023-09-19T01:32:05;1.90;;;1.50;;
61477;SDS011;47345;52.334;10.392;2023-09-19T01:34:46;2.00;;;1.50;;
61477;SDS011;47345;52.334;10.392;2023-09-19T01:37:15;1.90;;;1.40;;
61477;SDS011;47345;52.334;10.392;2023-09-19T01:39:46;2.50;;;1.30;;
61477;SDS011;47345;52.334;10.392;2023-09-19T01:42:18;2.00;;;1.50;;
61477;SDS011;47345;52.334;10.392;2023-09-19T01:47:42;3.90;;;1.60;;
61477;SDS011;47345;52.334;10.392;2023-09-19T01:50:19;4.50;;;1.60;;
61477;SDS011;47345;52.334;10.392;2023-09-19T01:52:57;2.50;;;1.50;;
61477;SDS011;47345;52.334;10.392;2023-09-19T01:55:30;2.20;;;1.40;;
61477;SDS011;47345;52.334;10.392;2023-09-19T01:58:06;3.90;;;1.50;;
61477;SDS011;47345;52.334;10.392;2023-09-19T02:00:41;2.00;;;1.40;;
61477;SDS011;47345;52.334;10.392;2023-09-19T02:03:12;3.50;;;1.70;;
61477;SDS011;47345;52.334;10.392;2023-09-19T02:05:40;2.20;;;1.60;;
61477;SDS011;47345;52.334;10.392;2023-09-19T02:08:16;2.90;;;1.40;;
61477;SDS011;47345;52.334;10.392;2023-09-19T02:10:45;1.90;;;1.70;;
61477;SDS011;47345;52.334;10.392;2023-09-19T02:13:15;2.00;;;1.70;;
61477;SDS011;47345;52.334;10.392;2023-09-19T02:15:44;4.60;;;1.90;;
61477;SDS011;47345;52.334;10.392;2023-09-19T02:18:12;3.90;;;2.00;;
61477;SDS011;47345;52.334;10.392;2023-09-19T02:20:40;3.80;;;2.00;;
61477;SDS011;47345;52.334;10.392;2023-09-19T02:25:36;2.20;;;1.80;;
61477;SDS011;47345;52.334;10.392;2023-09-19T02:28:05;2.00;;;1.80;;
61477;SDS011;47345;52.334;10.392;2023-09-19T02:30:33;2.40;;;1.80;;
61477;SDS011;47345;52.334;10.392;2023-09-19T02:35:28;2.00;;;1.90;;
61477;SDS011;47345;52.334;10.392;2023-09-19T02:38:01;3.10;;;1.80;;
61477;SDS011;47345;52.334;10.392;2023-09-19T02:40:33;2.50;;;1.90;;
61477;SDS011;47345;52.334;10.392;2023-09-19T02:43:04;2.20;;;1.90;;
61477;SDS011;47345;52.334;10.392;2023-09-19T02:45:33;3.90;;;2.10;;
61477;SDS011;47345;52.334;10.392;2023-09-19T02:48:02;2.00;;;1.90;;
61477;SDS011;47345;52.334;10.392;2023-09-19T02:50:32;2.30;;;2.00;;
61477;SDS011;47345;52.334;10.392;2023-09-19T02:53:01;6.00;;;2.40;;
61477;SDS011;47345;52.334;10.392;2023-09-19T02:55:30;6.70;;;2.50;;
61477;SDS011;47345;52.334;10.392;2023-09-19T02:57:58;5.00;;;2.40;;
61477;SDS011;47345;52.334;10.392;2023-09-19T03:00:27;2.80;;;2.30;;
61477;SDS011;47345;52.334;10.392;2023-09-19T03:02:56;4.20;;;2.90;;
61477;SDS011;47345;52.334;10.392;2023-09-19T03:05:26;2.80;;;2.60;;
61477;SDS011;47345;52.334;10.392;2023-09-19T03:07:57;7.30;;;3.30;;
61477;SDS011;47345;52.334;10.392;2023-09-19T03:10:27;7.30;;;3.30;;
61477;SDS011;47345;52.334;10.392;2023-09-19T03:12:56;8.40;;;3.30;;
61477;SDS011;47345;52.334;10.392;2023-09-19T03:15:26;4.50;;;3.40;;
61477;SDS011;47345;52.334;10.392;2023-09-19T03:20:21;8.00;;;3.40;;
61477;SDS011;47345;52.334;10.392;2023-09-19T03:22:49;10.50;;;3.80;;
61477;SDS011;47345;52.334;10.392;2023-09-19T03:25:17;4.80;;;3.30;;
61477;SDS011;47345;52.334;10.392;2023-09-19T03:27:46;7.40;;;3.60;;
61477;SDS011;47345;52.334;10.392;2023-09-19T03:30:15;7.10;;;4.10;;
61477;SDS011;47345;52.334;10.392;2023-09-19T03:32:44;6.30;;;3.50;;
61477;SDS011;47345;52.334;10.392;2023-09-19T03:35:13;6.10;;;3.40;;
61477;SDS011;47345;52.334;10.392;2023-09-19T03:37:42;6.80;;;3.50;;
61477;SDS011;47345;52.334;10.392;2023-09-19T03:40:11;7.10;;;3.60;;
61477;SDS011;47345;52.334;10.392;2023-09-19T03:42:39;6.90;;;3.90;;
61477;SDS011;47345;52.334;10.392;2023-09-19T03:45:09;6.40;;;3.60;;
61477;SDS011;47345;52.334;10.392;2023-09-19T03:47:38;9.20;;;3.70;;
61477;SDS011;47345;52.334;10.392;2023-09-19T03:50:07;7.00;;;3.50;;
61477;SDS011;47345;52.334;10.392;2023-09-19T03:52:37;8.80;;;3.90;;
61477;SDS011;47345;52.334;10.392;2023-09-19T03:55:05;11.40;;;4.50;;
61477;SDS011;47345;52.334;10.392;2023-09-19T03:57:36;7.30;;;4.60;;
61477;SDS011;47345;52.334;10.392;2023-09-19T04:00:05;8.10;;;3.70;;
61477;SDS011;47345;52.334;10.392;2023-09-19T04:02:37;8.70;;;4.00;;
61477;SDS011;47345;52.334;10.392;2023-09-19T04:05:06;8.00;;;4.20;;
61477;SDS011;47345;52.334;10.392;2023-09-19T04:07:35;8.80;;;3.80;;
61477;SDS011;47345;52.334;10.392;2023-09-19T04:10:04;10.80;;;4.20;;
61477;SDS011;47345;52.334;10.392;2023-09-19T04:12:35;12.20;;;3.50;;
61477;SDS011;47345;52.334;10.392;2023-09-19T04:17:31;5.60;;;3.10;;
61477;SDS011;47345;52.334;10.392;2023-09-19T04:19:59;8.10;;;5.40;;
61477;SDS011;47345;52.334;10.392;2023-09-19T04:22:27;5.70;;;3.50;;
61477;SDS011;47345;52.334;10.392;2023-09-19T04:27:23;7.70;;;3.50;;
61477;SDS011;47345;52.334;10.392;2023-09-19T04:29:51;7.70;;;3.90;;
61477;SDS011;47345;52.334;10.392;2023-09-19T04:32:19;8.60;;;4.30;;
61477;SDS011;47345;52.334;10.392;2023-09-19T04:34:47;5.40;;;3.60;;
61477;SDS011;47345;52.334;10.392;2023-09-19T04:37:16;9.20;;;3.60;;
61477;SDS011;47345;52.334;10.392;2023-09-19T04:39:44;7.80;;;4.10;;
61477;SDS011;47345;52.334;10.392;2023-09-19T04:44:41;11.90;;;3.90;;
61477;SDS011;47345;52.334;10.392;2023-09-19T04:47:09;13.80;;;3.90;;
61477;SDS011;47345;52.334;10.392;2023-09-19T04:49:38;8.00;;;4.40;;
61477;SDS011;47345;52.334;10.392;2023-09-19T04:54:33;8.60;;;4.40;;
61477;SDS011;47345;52.334;10.392;2023-09-19T04:57:01;8.50;;;4.30;;
61477;SDS011;47345;52.334;10.392;2023-09-19T04:59:32;6.90;;;4.40;;
61477;SDS011;47345;52.334;10.392;2023-09-19T05:04:27;8.50;;;4.30;;
61477;SDS011;47345;52.334;10.392;2023-09-19T05:06:55;9.20;;;4.50;;
61477;SDS011;47345;52.334;10.392;2023-09-19T05:11:50;11.60;;;4.90;;
61477;SDS011;47345;52.334;10.392;2023-09-19T05:14:19;11.30;;;4.50;;
61477;SDS011;47345;52.334;10.392;2023-09-19T05:16:47;10.80;;;4.30;;
61477;SDS011;47345;52.334;10.392;2023-09-19T05:19:15;8.60;;;4.40;;
61477;SDS011;47345;52.334;10.392;2023-09-19T05:21:43;9.10;;;3.90;;
61477;SDS011;47345;52.334;10.392;2023-09-19T05:24:11;9.10;;;4.20;;
61477;SDS011;47345;52.334;10.392;2023-09-19T05:26:40;13.10;;;4.30;;
61477;SDS011;47345;52.334;10.392;2023-09-19T05:31:35;6.30;;;4.20;;
61477;SDS011;47345;52.334;10.392;2023-09-19T05:34:07;9.30;;;4.50;;
61477;SDS011;47345;52.334;10.392;2023-09-19T05:36:35;9.30;;;4.10;;
61477;SDS011;47345;52.334;10.392;2023-09-19T05:41:30;14.30;;;4.10;;
61477;SDS011;47345;52.334;10.392;2023-09-19T05:46:30;4.80;;;3.50;;
61477;SDS011;47345;52.334;10.392;2023-09-19T05:48:57;8.90;;;4.20;;
61477;SDS011;47345;52.334;10.392;2023-09-19T05:53:54;10.10;;;4.20;;
61477;SDS011;47345;52.334;10.392;2023-09-19T05:56:22;7.50;;;3.50;;
61477;SDS011;47345;52.334;10.392;2023-09-19T06:01:18;8.00;;;4.00;;
61477;SDS011;47345;52.334;10.392;2023-09-19T06:03:46;10.40;;;3.90;;
61477;SDS011;47345;52.334;10.392;2023-09-19T06:06:14;6.50;;;3.80;;
61477;SDS011;47345;52.334;10.392;2023-09-19T06:08:42;11.10;;;3.70;;
61477;SDS011;47345;52.334;10.392;2023-09-19T06:11:11;11.80;;;3.80;;
61477;SDS011;47345;52.334;10.392;2023-09-19T06:13:39;7.70;;;3.50;;
61477;SDS011;47345;52.334;10.392;2023-09-19T06:16:08;7.60;;;3.50;;
61477;SDS011;47345;52.334;10.392;2023-09-19T06:21:03;5.60;;;3.80;;
61477;SDS011;47345;52.334;10.392;2023-09-19T06:23:33;7.70;;;3.90;;
61477;SDS011;47345;52.334;10.392;2023-09-19T06:26:02;15.20;;;5.70;;
61477;SDS011;47345;52.334;10.392;2023-09-19T06:28:33;11.90;;;3.80;;
61477;SDS011;47345;52.334;10.392;2023-09-19T06:31:02;12.20;;;3.90;;
61477;SDS011;47345;52.334;10.392;2023-09-19T06:33:34;8.60;;;4.00;;
61477;SDS011;47345;52.334;10.392;2023-09-19T06:36:05;10.30;;;4.30;;
61477;SDS011;47345;52.334;10.392;2023-09-19T06:38:34;9.80;;;4.00;;
61477;SDS011;47345;52.334;10.392;2023-09-19T06:41:02;10.70;;;4.00;;
61477;SDS011;47345;52.334;10.392;2023-09-19T06:43:31;13.70;;;3.80;;
61477;SDS011;47345;52.334;10.392;2023-09-19T06:46:00;9.80;;;4.70;;
61477;SDS011;47345;52.334;10.392;2023-09-19T06:48:28;7.70;;;3.30;;
61477;SDS011;47345;52.334;10.392;2023-09-19T06:50:57;9.70;;;3.90;;
61477;SDS011;47345;52.334;10.392;2023-09-19T06:53:31;11.90;;;3.80;;
61477;SDS011;47345;52.334;10.392;2023-09-19T06:55:58;10.80;;;3.80;;
61477;SDS011;47345;52.334;10.392;2023-09-19T06:58:26;9.00;;;3.80;;
61477;SDS011;47345;52.334;10.392;2023-09-19T07:00:54;9.60;;;3.50;;
61477;SDS011;47345;52.334;10.392;2023-09-19T07:03:23;7.10;;;4.00;;
61477;SDS011;47345;52.334;10.392;2023-09-19T07:05:53;9.10;;;3.60;;
61477;SDS011;47345;52.334;10.392;2023-09-19T07:08:22;7.00;;;3.30;;
61477;SDS011;47345;52.334;10.392;2023-09-19T07:13:19;8.70;;;3.80;;
61477;SDS011;47345;52.334;10.392;2023-09-19T07:15:47;11.60;;;3.70;;
61477;SDS011;47345;52.334;10.392;2023-09-19T07:18:16;15.60;;;4.20;;
61477;SDS011;47345;52.334;10.392;2023-09-19T07:20:44;12.10;;;3.80;;
61477;SDS011;47345;52.334;10.392;2023-09-19T07:23:15;9.60;;;3.80;;
61477;SDS011;47345;52.334;10.392;2023-09-19T07:25:44;5.80;;;3.40;;
61477;SDS011;47345;52.334;10.392;2023-09-19T07:28:12;10.40;;;3.30;;
61477;SDS011;47345;52.334;10.392;2023-09-19T07:30:40;8.10;;;3.90;;
61477;SDS011;47345;52.334;10.392;2023-09-19T07:33:08;11.20;;;3.70;;
61477;SDS011;47345;52.334;10.392;2023-09-19T07:35:37;9.40;;;3.20;;
61477;SDS011;47345;52.334;10.392;2023-09-19T07:38:06;9.10;;;3.00;;
61477;SDS011;47345;52.334;10.392;2023-09-19T07:40:34;8.90;;;3.30;;
61477;SDS011;47345;52.334;10.392;2023-09-19T07:43:03;8.80;;;2.80;;
61477;SDS011;47345;52.334;10.392;2023-09-19T07:45:31;10.40;;;3.30;;
61477;SDS011;47345;52.334;10.392;2023-09-19T07:47:59;6.10;;;2.60;;
61477;SDS011;47345;52.334;10.392;2023-09-19T07:50:30;8.10;;;2.80;;
61477;SDS011;47345;52.334;10.392;2023-09-19T07:52:59;10.70;;;2.60;;
61477;SDS011;47345;52.334;10.392;2023-09-19T07:55:28;7.80;;;2.80;;
61477;SDS011;47345;52.334;10.392;2023-09-19T07:57:55;14.30;;;3.50;;
61477;SDS011;47345;52.334;10.392;2023-09-19T08:00:24;9.50;;;2.30;;
61477;SDS011;47345;52.334;10.392;2023-09-19T08:02:52;7.60;;;2.70;;
61477;SDS011;47345;52.334;10.392;2023-09-19T08:05:30;10.00;;;2.40;;
61477;SDS011;47345;52.334;10.392;2023-09-19T08:07:59;8.20;;;2.30;;
61477;SDS011;47345;52.334;10.392;2023-09-19T08:10:27;9.20;;;2.20;;
61477;SDS011;47345;52.334;10.392;2023-09-19T08:13:01;6.20;;;2.10;;
61477;SDS011;47345;52.334;10.392;2023-09-19T08:15:30;8.90;;;2.60;;
61477;SDS011;47345;52.334;10.392;2023-09-19T08:17:58;7.00;;;2.10;;
61477;SDS011;47345;52.334;10.392;2023-09-19T08:20:26;6.20;;;1.80;;
61477;SDS011;47345;52.334;10.392;2023-09-19T08:22:54;10.10;;;2.40;;
61477;SDS011;47345;52.334;10.392;2023-09-19T08:25:22;10.40;;;2.10;;
61477;SDS011;47345;52.334;10.392;2023-09-19T08:27:52;8.80;;;2.10;;
61477;SDS011;47345;52.334;10.392;2023-09-19T08:30:24;7.60;;;2.30;;
61477;SDS011;47345;52.334;10.392;2023-09-19T08:32:57;11.60;;;2.00;;
61477;SDS011;47345;52.334;10.392;2023-09-19T08:35:25;7.20;;;2.00;;
61477;SDS011;47345;52.334;10.392;2023-09-19T08:37:53;11.70;;;2.40;;
61477;SDS011;47345;52.334;10.392;2023-09-19T08:40:21;12.10;;;2.80;;
61477;SDS011;47345;52.334;10.392;2023-09-19T08:42:51;8.60;;;2.40;;
61477;SDS011;47345;52.334;10.392;2023-09-19T08:45:20;8.20;;;2.00;;
61477;SDS011;47345;52.334;10.392;2023-09-19T08:47:53;6.30;;;2.00;;
61477;SDS011;47345;52.334;10.392;2023-09-19T08:50:31;5.60;;;1.90;;
61477;SDS011;47345;52.334;10.392;2023-09-19T08:53:06;11.90;;;2.40;;
61477;SDS011;47345;52.334;10.392;2023-09-19T08:55:42;10.40;;;2.30;;
61477;SDS011;47345;52.334;10.392;2023-09-19T08:58:13;11.90;;;2.80;;
61477;SDS011;47345;52.334;10.392;2023-09-19T09:00:46;10.00;;;2.30;;
61477;SDS011;47345;52.334;10.392;2023-09-19T09:03:17;8.40;;;2.00;;
61477;SDS011;47345;52.334;10.392;2023-09-19T09:05:47;6.60;;;2.00;;
61477;SDS011;47345;52.334;10.392;2023-09-19T09:08:17;6.10;;;2.50;;
61477;SDS011;47345;52.334;10.392;2023-09-19T09:10:48;7.00;;;2.10;;
61477;SDS011;47345;52.334;10.392;2023-09-19T09:13:17;5.90;;;2.60;;
61477;SDS011;47345;52.334;10.392;2023-09-19T09:15:45;8.40;;;1.90;;
61477;SDS011;47345;52.334;10.392;2023-09-19T09:18:13;6.40;;;2.10;;
61477;SDS011;47345;52.334;10.392;2023-09-19T09:20:41;9.60;;;2.00;;
61477;SDS011;47345;52.334;10.392;2023-09-19T09:23:11;8.80;;;2.10;;
61477;SDS011;47345;52.334;10.392;2023-09-19T09:25:50;9.80;;;2.60;;
61477;SDS011;47345;52.334;10.392;2023-09-19T09:28:23;4.00;;;1.80;;
61477;SDS011;47345;52.334;10.392;2023-09-19T09:30:53;8.60;;;2.10;;
61477;SDS011;47345;52.334;10.392;2023-09-19T09:33:21;7.00;;;2.00;;
61477;SDS011;47345;52.334;10.392;2023-09-19T09:35:52;5.20;;;2.10;;
61477;SDS011;47345;52.334;10.392;2023-09-19T09:38:23;8.30;;;2.00;;
61477;SDS011;47345;52.334;10.392;2023-09-19T09:40:54;8.10;;;2.40;;
61477;SDS011;47345;52.334;10.392;2023-09-19T09:43:31;5.80;;;1.90;;
61477;SDS011;47345;52.334;10.392;2023-09-19T09:46:09;9.00;;;2.20;;
61477;SDS011;47345;52.334;10.392;2023-09-19T09:48:56;8.40;;;2.00;;
61477;SDS011;47345;52.334;10.392;2023-09-19T09:52:00;5.50;;;1.90;;
61477;SDS011;47345;52.334;10.392;2023-09-19T09:54:34;8.30;;;1.90;;
61477;SDS011;47345;52.334;10.392;2023-09-19T09:57:03;7.20;;;1.90;;
61477;SDS011;47345;52.334;10.392;2023-09-19T09:59:47;6.80;;;2.30;;
61477;SDS011;47345;52.334;10.392;2023-09-19T10:02:20;8.20;;;2.40;;
61477;SDS011;47345;52.334;10.392;2023-09-19T10:04:52;3.50;;;1.90;;
61477;SDS011;47345;52.334;10.392;2023-09-19T10:07:26;4.20;;;1.70;;
61477;SDS011;47345;52.334;10.392;2023-09-19T10:09:59;6.30;;;2.00;;
61477;SDS011;47345;52.334;10.392;2023-09-19T10:12:43;5.20;;;1.80;;
61477;SDS011;47345;52.334;10.392;2023-09-19T10:15:15;7.50;;;2.20;;
61477;SDS011;47345;52.334;10.392;2023-09-19T10:17:47;11.00;;;1.90;;
61477;SDS011;47345;52.334;10.392;2023-09-19T10:20:16;4.20;;;1.70;;
61477;SDS011;47345;52.334;10.392;2023-09-19T10:23:00;8.20;;;2.20;;
61477;SDS011;47345;52.334;10.392;2023-09-19T10:25:36;5.20;;;2.00;;
61477;SDS011;47345;52.334;10.392;2023-09-19T10:28:06;5.20;;;1.90;;
61477;SDS011;47345;52.334;10.392;2023-09-19T10:30:41;5.60;;;1.90;;
61477;SDS011;47345;52.334;10.392;2023-09-19T10:33:11;8.00;;;2.20;;
61477;SDS011;47345;52.334;10.392;2023-09-19T10:35:42;5.20;;;1.60;;
61477;SDS011;47345;52.334;10.392;2023-09-19T10:38:10;6.30;;;2.00;;
61477;SDS011;47345;52.334;10.392;2023-09-19T10:40:39;6.30;;;2.40;;
61477;SDS011;47345;52.334;10.392;2023-09-19T10:43:12;5.00;;;2.00;;
61477;SDS011;47345;52.334;10.392;2023-09-19T10:45:45;5.90;;;1.70;;
61477;SDS011;47345;52.334;10.392;2023-09-19T10:48:15;6.00;;;2.10;;
61477;SDS011;47345;52.334;10.392;2023-09-19T10:50:47;4.80;;;2.30;;
61477;SDS011;47345;52.334;10.392;2023-09-19T10:53:20;6.80;;;2.10;;
61477;SDS011;47345;52.334;10.392;2023-09-19T10:55:50;7.20;;;2.30;;
61477;SDS011;47345;52.334;10.392;2023-09-19T10:58:27;4.30;;;2.00;;
61477;SDS011;47345;52.334;10.392;2023-09-19T11:00:57;6.60;;;2.20;;
61477;SDS011;47345;52.334;10.392;2023-09-19T11:03:38;5.30;;;1.90;;
61477;SDS011;47345;52.334;10.392;2023-09-19T11:06:10;6.30;;;2.30;;
61477;SDS011;47345;52.334;10.392;2023-09-19T11:08:56;9.10;;;2.00;;
61477;SDS011;47345;52.334;10.392;2023-09-19T11:11:40;6.60;;;2.40;;
61477;SDS011;47345;52.334;10.392;2023-09-19T11:14:30;7.90;;;2.10;;
61477;SDS011;47345;52.334;10.392;2023-09-19T11:23:21;5.20;;;2.00;;
61477;SDS011;47345;52.334;10.392;2023-09-19T11:28:28;5.20;;;2.20;;
61477;SDS011;47345;52.334;10.392;2023-09-19T11:34:39;4.70;;;2.00;;
61477;SDS011;47345;52.334;10.392;2023-09-19T11:40:09;5.50;;;2.10;;
61477;SDS011;47345;52.334;10.392;2023-09-19T11:42:42;7.50;;;2.20;;
61477;SDS011;47345;52.334;10.392;2023-09-19T11:48:29;5.00;;;2.50;;
61477;SDS011;47345;52.334;10.392;2023-09-19T11:50:58;7.90;;;2.20;;
61477;SDS011;47345;52.334;10.392;2023-09-19T11:53:31;5.10;;;2.20;;
61477;SDS011;47345;52.334;10.392;2023-09-19T11:56:04;5.50;;;2.20;;
61477;SDS011;47345;52.334;10.392;2023-09-19T11:58:37;5.60;;;2.40;;
61477;SDS011;47345;52.334;10.392;2023-09-19T12:01:10;6.50;;;2.20;;
61477;SDS011;47345;52.334;10.392;2023-09-19T12:03:43;5.50;;;2.30;;
61477;SDS011;47345;52.334;10.392;2023-09-19T12:06:15;4.40;;;2.20;;
61477;SDS011;47345;52.334;10.392;2023-09-19T12:08:43;7.20;;;2.50;;
61477;SDS011;47345;52.334;10.392;2023-09-19T12:11:14;10.40;;;2.90;;
61477;SDS011;47345;52.334;10.392;2023-09-19T12:13:44;8.80;;;2.50;;
61477;SDS011;47345;52.334;10.392;2023-09-19T12:16:15;8.90;;;2.50;;
61477;SDS011;47345;52.334;10.392;2023-09-19T12:18:44;5.80;;;2.10;;
61477;SDS011;47345;52.334;10.392;2023-09-19T12:21:23;4.10;;;2.20;;
61477;SDS011;47345;52.334;10.392;2023-09-19T12:24:04;8.30;;;2.60;;
61477;SDS011;47345;52.334;10.392;2023-09-19T12:26:38;5.00;;;2.10;;
61477;SDS011;47345;52.334;10.392;2023-09-19T12:29:11;7.40;;;2.30;;
61477;SDS011;47345;52.334;10.392;2023-09-19T12:31:48;5.50;;;2.20;;
61477;SDS011;47345;52.334;10.392;2023-09-19T12:34:22;5.00;;;2.70;;
61477;SDS011;47345;52.334;10.392;2023-09-19T12:37:06;6.50;;;2.20;;
61477;SDS011;47345;52.334;10.392;2023-09-19T12:39:39;3.80;;;2.00;;
61477;SDS011;47345;52.334;10.392;2023-09-19T12:42:10;7.40;;;2.40;;
61477;SDS011;47345;52.334;10.392;2023-09-19T12:44:43;5.10;;;2.60;;
61477;SDS011;47345;52.334;10.392;2023-09-19T12:47:13;8.00;;;2.30;;
61477;SDS011;47345;52.334;10.392;2023-09-19T12:52:39;5.50;;;2.30;;
61477;SDS011;47345;52.334;10.392;2023-09-19T12:55:18;8.00;;;2.40;;
61477;SDS011;47345;52.334;10.392;2023-09-19T12:58:02;4.80;;;2.00;;
61477;SDS011;47345;52.334;10.392;2023-09-19T13:00:39;6.50;;;2.40;;
61477;SDS011;47345;52.334;10.392;2023-09-19T13:03:12;6.20;;;2.40;;
61477;SDS011;47345;52.334;10.392;2023-09-19T13:05:49;9.30;;;2.80;;
61477;SDS011;47345;52.334;10.392;2023-09-19T13:08:18;9.90;;;2.30;;
61477;SDS011;47345;52.334;10.392;2023-09-19T13:11:01;5.70;;;2.30;;
61477;SDS011;47345;52.334;10.392;2023-09-19T13:13:33;10.40;;;2.40;;
61477;SDS011;47345;52.334;10.392;2023-09-19T13:16:03;7.50;;;2.50;;
61477;SDS011;47345;52.334;10.392;2023-09-19T13:18:45;6.20;;;2.20;;
61477;SDS011;47345;52.334;10.392;2023-09-19T13:21:17;6.20;;;2.40;;
61477;SDS011;47345;52.334;10.392;2023-09-19T13:23:56;7.30;;;2.60;;
61477;SDS011;47345;52.334;10.392;2023-09-19T13:26:44;5.70;;;2.30;;
61477;SDS011;47345;52.334;10.392;2023-09-19T13:29:12;7.70;;;2.50;;
61477;SDS011;47345;52.334;10.392;2023-09-19T13:31:40;3.20;;;1.80;;
61477;SDS011;47345;52.334;10.392;2023-09-19T13:34:09;7.20;;;2.40;;
61477;SDS011;47345;52.334;10.392;2023-09-19T13:36:37;8.30;;;2.50;;
61477;SDS011;47345;52.334;10.392;2023-09-19T13:39:05;8.10;;;2.30;;
61477;SDS011;47345;52.334;10.392;2023-09-19T13:41:35;5.00;;;2.30;;
61477;SDS011;47345;52.334;10.392;2023-09-19T13:44:03;3.50;;;2.10;;
61477;SDS011;47345;52.334;10.392;2023-09-19T13:46:32;5.30;;;2.40;;
61477;SDS011;47345;52.334;10.392;2023-09-19T13:49:01;6.40;;;2.20;;
61477;SDS011;47345;52.334;10.392;2023-09-19T13:51:30;4.00;;;2.00;;
61477;SDS011;47345;52.334;10.392;2023-09-19T13:53:58;6.40;;;2.40;;
61477;SDS011;47345;52.334;10.392;2023-09-19T13:56:26;5.50;;;2.20;;
61477;SDS011;47345;52.334;10.392;2023-09-19T13:58:54;5.40;;;2.50;;
61477;SDS011;47345;52.334;10.392;2023-09-19T14:01:22;8.50;;;2.40;;
61477;SDS011;47345;52.334;10.392;2023-09-19T14:03:50;8.70;;;2.30;;
61477;SDS011;47345;52.334;10.392;2023-09-19T14:06:20;5.70;;;2.30;;
61477;SDS011;47345;52.334;10.392;2023-09-19T14:08:48;7.90;;;3.40;;
61477;SDS011;47345;52.334;10.392;2023-09-19T14:11:17;6.70;;;2.80;;
61477;SDS011;47345;52.334;10.392;2023-09-19T14:13:44;6.70;;;2.70;;
61477;SDS011;47345;52.334;10.392;2023-09-19T14:16:15;7.20;;;2.60;;
61477;SDS011;47345;52.334;10.392;2023-09-19T14:18:45;5.90;;;2.60;;
61477;SDS011;47345;52.334;10.392;2023-09-19T14:21:13;7.90;;;2.40;;
61477;SDS011;47345;52.334;10.392;2023-09-19T14:23:41;8.80;;;2.20;;
61477;SDS011;47345;52.334;10.392;2023-09-19T14:26:09;6.90;;;2.60;;
61477;SDS011;47345;52.334;10.392;2023-09-19T14:28:38;8.30;;;2.50;;
61477;SDS011;47345;52.334;10.392;2023-09-19T14:31:06;8.20;;;2.80;;
61477;SDS011;47345;52.334;10.392;2023-09-19T14:33:35;6.50;;;2.50;;
61477;SDS011;47345;52.334;10.392;2023-09-19T14:36:04;5.50;;;2.30;;
61477;SDS011;47345;52.334;10.392;2023-09-19T14:38:34;7.30;;;2.40;;
61477;SDS011;47345;52.334;10.392;2023-09-19T14:41:04;10.00;;;2.40;;
61477;SDS011;47345;52.334;10.392;2023-09-19T14:43:33;7.50;;;2.40;;
61477;SDS011;47345;52.334;10.392;2023-09-19T14:46:03;5.30;;;2.30;;
61477;SDS011;47345;52.334;10.392;2023-09-19T14:48:31;8.20;;;2.40;;
61477;SDS011;47345;52.334;10.392;2023-09-19T14:51:02;7.30;;;2.40;;
61477;SDS011;47345;52.334;10.392;2023-09-19T14:53:30;8.50;;;2.50;;
61477;SDS011;47345;52.334;10.392;2023-09-19T14:56:00;8.60;;;2.30;;
61477;SDS011;47345;52.334;10.392;2023-09-19T14:58:29;7.60;;;2.40;;
61477;SDS011;47345;52.334;10.392;2023-09-19T15:01:07;5.20;;;2.60;;
61477;SDS011;47345;52.334;10.392;2023-09-19T15:03:36;5.00;;;2.30;;
61477;SDS011;47345;52.334;10.392;2023-09-19T15:06:06;8.00;;;2.70;;
61477;SDS011;47345;52.334;10.392;2023-09-19T15:08:37;5.10;;;2.70;;
61477;SDS011;47345;52.334;10.392;2023-09-19T15:11:05;12.30;;;5.60;;
61477;SDS011;47345;52.334;10.392;2023-09-19T15:13:34;6.40;;;2.30;;
61477;SDS011;47345;52.334;10.392;2023-09-19T15:16:03;6.20;;;2.20;;
61477;SDS011;47345;52.334;10.392;2023-09-19T15:18:35;3.40;;;2.20;;
61477;SDS011;47345;52.334;10.392;2023-09-19T15:21:04;5.40;;;2.20;;
61477;SDS011;47345;52.334;10.392;2023-09-19T15:23:33;5.00;;;2.20;;
61477;SDS011;47345;52.334;10.392;2023-09-19T15:26:03;5.90;;;2.60;;
61477;SDS011;47345;52.334;10.392;2023-09-19T15:28:31;5.50;;;2.10;;
61477;SDS011;47345;52.334;10.392;2023-09-19T15:31:00;5.70;;;2.40;;
61477;SDS011;47345;52.334;10.392;2023-09-19T15:33:29;7.40;;;2.20;;
61477;SDS011;47345;52.334;10.392;2023-09-19T15:36:01;9.90;;;2.50;;
61477;SDS011;47345;52.334;10.392;2023-09-19T15:38:31;5.40;;;2.20;;
61477;SDS011;47345;52.334;10.392;2023-09-19T15:41:18;4.70;;;2.20;;
61477;SDS011;47345;52.334;10.392;2023-09-19T15:43:47;6.90;;;2.20;;
61477;SDS011;47345;52.334;10.392;2023-09-19T15:46:15;7.70;;;2.50;;
61477;SDS011;47345;52.334;10.392;2023-09-19T15:48:43;7.70;;;2.60;;
61477;SDS011;47345;52.334;10.392;2023-09-19T15:51:12;5.30;;;2.40;;
61477;SDS011;47345;52.334;10.392;2023-09-19T15:53:42;3.50;;;1.90;;
61477;SDS011;47345;52.334;10.392;2023-09-19T15:56:11;7.00;;;2.50;;
61477;SDS011;47345;52.334;10.392;2023-09-19T15:58:40;7.60;;;2.60;;